Ride Results

Nanango (05-11-2016)
Ride distance: 80.0 km

Outcomes - Nanango (05-11-2016)
Division No. of Entries Retired / DNE Completed Withdrawn Ineligible V/O Percentage Completed
HW 7 - 5 1 - 1 71.43%
MW 12 - 8 1 - 3 66.67%
LW 13 - 12 - - 1 92.31%
JN 6 - 6 - - - 100.00%
Totals 38 - 31 2 - 5 81.58%
Results - Nanango (05-11-2016)
No. Rider Horse Place Time Leg Speeds Total
Km/Hr
H/R bpm
Heavyweight
23 Mark Nimon Alon Dawn 1 (BC) 6:00:00 14.6, 12.2 13.33 37, 50, 52 (Avg:51)
3 Barry Steele Aloha Rippling Gold 2 6:52:00 12.3, 11.0 11.65 37, 55, 51 (Avg:53)
15 Greg Garred Shannonwood Hotlips 3 7:30:00 11.1, 10.2 10.67 45, 46, 48 (Avg:47)
14 Jaime Mansbridge Shannonwood Rana 3 7:30:00 11.1, 10.2 10.67 47, 48, 54 (Avg:51)
27 Gavin Bartlett Gheerulla Ambition 5 8:44:00 9.9, 8.5 9.16 40, 43, 45 (Avg:44)
21 Vern Berry Oracle Lame L2 0:00:00 12.1, 8.7 - 35, 51, 50 (Avg:50)
35 Sue Gurtner Cedarton Achak Abornazine Withdrawn L1 0:00:00 - - 33, 50 (Avg:50)
Middleweight
26 Shay Corbett Riverfire 1 (BC) 5:49:00 14.8, 12.8 13.75 32, 48, 53 (Avg:50)
4 Jacinta Stubbings Cameo Pygmalion 2 6:00:00 14.7, 12.1 13.33 31, 43, 48 (Avg:45)
8 Virginia Barber Warregal 3 6:24:00 12.3, 12.6 12.50 36, 52, 51 (Avg:51)
17 Stephen Gray Sir Avatar 4 6:25:00 13.0, 11.9 12.47 25, 39, 47 (Avg:43)
18 Anita Maggacis Zameel Rafiq 5 6:37:00 12.4, 11.7 12.09 41, 52, 60 (Avg:56)
39 Jackie Swan Shantele 6 7:12:00 12.1, 10.2 11.11 35, 42, 45 (Avg:43)
36 Sherry Lowe Owata Park Adiva 7 7:23:00 11.5, 10.2 10.84 39, 41, 49 (Avg:45)
28 Olga Bartlett Mt Eerwah Anastazia 8 8:44:00 9.9, 8.5 9.16 39, 44, 47 (Avg:45)
10 Anne Barlow Sa-Har Magnolia Metabolics severe L2 0:00:00 12.3, 10.5 - 32, 45, 51 (Avg:48)
31 Fiona Fenech EUS Antonio Lame L2 0:00:00 11.5, 10.2 - 38, 40, 43 (Avg:41)
19 Natashja Burton Cool Water Moonshadow Heart Rate L1 0:00:00 13.1 - 49, 69 (Avg:69)
25 Angela Waldock Concord Withdrawn L1 0:00:00 - - 48, 47 (Avg:47)
Lightweight
32 Amaya Thomas Abberlyn Park Alivia 1 (BC) 5:49:00 14.8, 12.8 13.75 36, 41, 47 (Avg:44)
30 Jan Tyrrell Steel Poppy Bayeux 2 6:00:00 14.7, 12.1 13.33 33, 48, 49 (Avg:48)
24 Xanthe Webb Evelyn te 3 6:27:00 12.9, 11.8 12.40 34, 44, 48 (Avg:46)
20 Kelsey Irvine Karma 4 6:45:00 11.3, 12.3 11.85 38, 51, 54 (Avg:52)
1 Shelley Chapman Cameo Felspar 5 6:52:00 12.1, 11.1 11.65 42, 48, 52 (Avg:50)
2 Tahlia Franke Shanelli-Park Sadiq 5 6:52:00 12.1, 11.1 11.65 39, 45, 53 (Avg:49)
5 Mary Sims Mt Eerwah Silver Duet 7 7:01:00 12.1, 10.7 11.40 33, 42, 40 (Avg:41)
37 Carla Jones Kholonial Bartholomew 8 7:12:00 12.1, 10.2 11.11 34, 46, 53 (Avg:49)
7 Leigh Rich Miva Avanti 8 7:12:00 12.1, 10.2 11.11 39, 47, 53 (Avg:50)
16 Antonia Jardine Cooper 10 7:20:00 11.4, 10.3 10.91 40, 53, 49 (Avg:51)
13 Corrine Rees Sonato 10 7:20:00 11.4, 10.3 10.91 40, 53, 54 (Avg:53)
38 Adrian Brickley Cameo Crimzon Moon 12 7:31:00 11.1, 10.1 10.64 40, 48, 49 (Avg:48)
6 Christal Rizk Poco Lingotte Lame L2 0:00:00 14.8, 12.8 - 36, 46, 49 (Avg:47)
Junior
9 Georgie Barber Shanti 1 6:24:00 12.3, 12.6 12.50 40, 51, 47 (Avg:49)
12 Emily Markey Briallyn Kirra Bint Zanir 2 (BC) 6:27:00 13.4, 11.5 12.40 39, 49, 48 (Avg:48)
11 Emilie Jensen Erin Park GBH 3 7:15:00 10.3, 11.7 11.03 33, 43, 50 (Avg:46)
33 Emma Dimech Khaiser EP 4 7:23:00 11.5, 10.2 10.84 43, 49, 50 (Avg:49)
34 Jodie Tilse EUS Boomer 4 7:23:00 11.5, 10.2 10.84 40, 47, 52 (Avg:49)
22 Maeve Paten Abbeywood Magnum 6 7:53:00 12.1, 8.7 10.15 33, 42, 46 (Avg:44)